sensor_id;sensor_type;location;lat;lon;timestamp;pressure;altitude;pressure_sealevel;temperature;humidity
62237;BME280;69163;48.778;2.308;2023-05-25T00:00:19;101463.81;;;17.99;35.83
62237;BME280;69163;48.778;2.308;2023-05-25T00:02:43;101466.60;;;18.09;35.57
62237;BME280;69163;48.778;2.308;2023-05-25T00:05:09;101466.87;;;18.16;35.53
62237;BME280;69163;48.778;2.308;2023-05-25T00:07:34;101461.97;;;18.37;35.27
62237;BME280;69163;48.778;2.308;2023-05-25T00:09:59;101458.77;;;18.58;35.20
62237;BME280;69163;48.778;2.308;2023-05-25T00:12:25;101461.23;;;18.36;35.20
62237;BME280;69163;48.778;2.308;2023-05-25T00:14:50;101459.25;;;18.29;35.22
62237;BME280;69163;48.778;2.308;2023-05-25T00:17:15;101454.65;;;18.43;35.22
62237;BME280;69163;48.778;2.308;2023-05-25T00:19:40;101458.27;;;18.60;35.11
62237;BME280;69163;48.778;2.308;2023-05-25T00:22:06;101453.50;;;18.15;35.27
62237;BME280;69163;48.778;2.308;2023-05-25T00:24:30;101455.24;;;18.50;35.11
62237;BME280;69163;48.778;2.308;2023-05-25T00:26:57;101455.81;;;18.62;34.93
62237;BME280;69163;48.778;2.308;2023-05-25T00:29:22;101450.61;;;18.37;34.90
62237;BME280;69163;48.778;2.308;2023-05-25T00:31:47;101452.08;;;19.00;34.77
62237;BME280;69163;48.778;2.308;2023-05-25T00:34:12;101454.40;;;18.59;34.67
62237;BME280;69163;48.778;2.308;2023-05-25T00:36:38;101456.21;;;18.45;34.70
62237;BME280;69163;48.778;2.308;2023-05-25T00:39:03;101454.76;;;18.42;34.72
62237;BME280;69163;48.778;2.308;2023-05-25T00:41:28;101451.84;;;18.53;34.52
62237;BME280;69163;48.778;2.308;2023-05-25T00:43:53;101451.96;;;18.54;34.48
62237;BME280;69163;48.778;2.308;2023-05-25T00:46:19;101454.42;;;18.58;34.43
62237;BME280;69163;48.778;2.308;2023-05-25T00:48:45;101448.04;;;18.61;34.37
62237;BME280;69163;48.778;2.308;2023-05-25T00:51:10;101454.74;;;18.70;34.16
62237;BME280;69163;48.778;2.308;2023-05-25T00:53:34;101454.46;;;18.80;34.13
62237;BME280;69163;48.778;2.308;2023-05-25T00:56:03;101453.01;;;18.71;34.12
62237;BME280;69163;48.778;2.308;2023-05-25T00:58:27;101451.66;;;18.76;34.14
62237;BME280;69163;48.778;2.308;2023-05-25T01:00:50;101451.33;;;18.73;34.06
62237;BME280;69163;48.778;2.308;2023-05-25T01:03:19;101448.65;;;18.86;33.96
62237;BME280;69163;48.778;2.308;2023-05-25T01:05:43;101450.90;;;19.17;33.87
62237;BME280;69163;48.778;2.308;2023-05-25T01:08:07;101452.58;;;18.83;33.91
62237;BME280;69163;48.778;2.308;2023-05-25T01:10:32;101450.54;;;18.78;33.98
62237;BME280;69163;48.778;2.308;2023-05-25T01:12:57;101445.18;;;18.82;33.90
62237;BME280;69163;48.778;2.308;2023-05-25T01:15:22;101445.53;;;18.77;33.95
62237;BME280;69163;48.778;2.308;2023-05-25T01:17:48;101444.52;;;19.01;33.73
62237;BME280;69163;48.778;2.308;2023-05-25T01:20:12;101444.17;;;19.04;33.63
62237;BME280;69163;48.778;2.308;2023-05-25T01:22:39;101443.44;;;18.98;33.59
62237;BME280;69163;48.778;2.308;2023-05-25T01:25:07;101450.17;;;19.07;33.80
62237;BME280;69163;48.778;2.308;2023-05-25T01:27:32;101448.42;;;18.94;33.66
62237;BME280;69163;48.778;2.308;2023-05-25T01:29:54;101449.27;;;18.94;33.62
62237;BME280;69163;48.778;2.308;2023-05-25T01:32:19;101448.19;;;18.84;33.69
62237;BME280;69163;48.778;2.308;2023-05-25T01:34:44;101447.75;;;18.88;33.58
62237;BME280;69163;48.778;2.308;2023-05-25T01:37:09;101447.92;;;18.85;33.64
62237;BME280;69163;48.778;2.308;2023-05-25T01:39:33;101448.14;;;18.72;33.74
62237;BME280;69163;48.778;2.308;2023-05-25T01:41:59;101449.73;;;18.93;33.57
62237;BME280;69163;48.778;2.308;2023-05-25T01:44:25;101455.26;;;18.99;33.50
62237;BME280;69163;48.778;2.308;2023-05-25T01:46:54;101450.80;;;18.91;33.53
62237;BME280;69163;48.778;2.308;2023-05-25T01:49:22;101456.83;;;19.41;33.25
62237;BME280;69163;48.778;2.308;2023-05-25T01:51:46;101456.65;;;19.14;33.25
62237;BME280;69163;48.778;2.308;2023-05-25T01:54:09;101460.08;;;19.29;33.11
62237;BME280;69163;48.778;2.308;2023-05-25T01:56:31;101457.47;;;19.45;33.14
62237;BME280;69163;48.778;2.308;2023-05-25T01:58:57;101461.33;;;19.29;33.05
62237;BME280;69163;48.778;2.308;2023-05-25T02:01:21;101459.62;;;19.35;32.98
62237;BME280;69163;48.778;2.308;2023-05-25T02:03:46;101464.45;;;19.46;32.83
62237;BME280;69163;48.778;2.308;2023-05-25T02:06:12;101459.70;;;19.89;32.87
62237;BME280;69163;48.778;2.308;2023-05-25T02:08:37;101463.45;;;19.44;32.81
62237;BME280;69163;48.778;2.308;2023-05-25T02:11:03;101464.43;;;19.40;32.81
62237;BME280;69163;48.778;2.308;2023-05-25T02:13:28;101458.04;;;19.44;32.79
62237;BME280;69163;48.778;2.308;2023-05-25T02:15:54;101464.91;;;19.46;32.74
62237;BME280;69163;48.778;2.308;2023-05-25T02:18:19;101466.59;;;19.48;32.71
62237;BME280;69163;48.778;2.308;2023-05-25T02:20:45;101464.47;;;19.43;32.75
62237;BME280;69163;48.778;2.308;2023-05-25T02:23:10;101464.85;;;19.26;32.65
62237;BME280;69163;48.778;2.308;2023-05-25T02:25:35;101469.62;;;19.54;32.61
62237;BME280;69163;48.778;2.308;2023-05-25T02:28:01;101471.42;;;19.47;32.64
62237;BME280;69163;48.778;2.308;2023-05-25T02:30:26;101471.91;;;19.55;32.56
62237;BME280;69163;48.778;2.308;2023-05-25T02:32:50;101472.20;;;19.57;32.55
62237;BME280;69163;48.778;2.308;2023-05-25T02:35:16;101471.15;;;19.50;32.58
62237;BME280;69163;48.778;2.308;2023-05-25T02:37:42;101474.79;;;19.50;32.57
62237;BME280;69163;48.778;2.308;2023-05-25T02:40:08;101479.66;;;18.92;32.68
62237;BME280;69163;48.778;2.308;2023-05-25T02:42:32;101480.15;;;19.51;32.56
62237;BME280;69163;48.778;2.308;2023-05-25T02:44:58;101479.15;;;19.50;32.55
62237;BME280;69163;48.778;2.308;2023-05-25T02:47:22;101479.11;;;19.55;32.47
62237;BME280;69163;48.778;2.308;2023-05-25T02:49:48;101478.80;;;19.78;32.47
62237;BME280;69163;48.778;2.308;2023-05-25T02:52:13;101483.91;;;19.53;32.46
62237;BME280;69163;48.778;2.308;2023-05-25T02:54:38;101485.97;;;19.31;32.40
62237;BME280;69163;48.778;2.308;2023-05-25T02:57:09;101483.91;;;19.58;32.37
62237;BME280;69163;48.778;2.308;2023-05-25T02:59:29;101489.35;;;19.52;32.41
62237;BME280;69163;48.778;2.308;2023-05-25T03:01:54;101486.22;;;19.55;32.37
62237;BME280;69163;48.778;2.308;2023-05-25T03:04:20;101486.21;;;19.48;32.44
62237;BME280;69163;48.778;2.308;2023-05-25T03:06:45;101485.44;;;19.60;32.30
62237;BME280;69163;48.778;2.308;2023-05-25T03:09:10;101488.80;;;19.40;32.19
62237;BME280;69163;48.778;2.308;2023-05-25T03:11:36;101488.30;;;19.51;32.32
62237;BME280;69163;48.778;2.308;2023-05-25T03:14:01;101492.98;;;19.52;32.28
62237;BME280;69163;48.778;2.308;2023-05-25T03:16:26;101492.79;;;19.65;32.19
62237;BME280;69163;48.778;2.308;2023-05-25T03:18:52;101492.74;;;19.66;32.17
62237;BME280;69163;48.778;2.308;2023-05-25T03:21:17;101497.42;;;19.72;32.11
62237;BME280;69163;48.778;2.308;2023-05-25T03:23:42;101493.30;;;19.42;32.12
62237;BME280;69163;48.778;2.308;2023-05-25T03:26:07;101495.52;;;20.14;32.10
62237;BME280;69163;48.778;2.308;2023-05-25T03:28:32;101496.25;;;19.48;32.04
62237;BME280;69163;48.778;2.308;2023-05-25T03:30:58;101499.58;;;19.71;32.01
62237;BME280;69163;48.778;2.308;2023-05-25T03:33:23;101505.70;;;19.84;31.86
62237;BME280;69163;48.778;2.308;2023-05-25T03:35:48;101510.79;;;19.79;31.91
62237;BME280;69163;48.778;2.308;2023-05-25T03:38:13;101508.33;;;19.79;31.90
62237;BME280;69163;48.778;2.308;2023-05-25T03:40:38;101508.88;;;19.90;31.99
62237;BME280;69163;48.778;2.308;2023-05-25T03:43:04;101514.87;;;19.79;31.87
62237;BME280;69163;48.778;2.308;2023-05-25T03:45:29;101515.43;;;19.79;31.84
62237;BME280;69163;48.778;2.308;2023-05-25T03:47:54;101524.40;;;20.36;31.72
62237;BME280;69163;48.778;2.308;2023-05-25T03:50:20;101524.57;;;19.96;31.63
62237;BME280;69163;48.778;2.308;2023-05-25T03:52:45;101519.73;;;19.74;31.58
62237;BME280;69163;48.778;2.308;2023-05-25T03:55:09;101523.38;;;19.81;31.82
62237;BME280;69163;48.778;2.308;2023-05-25T03:57:35;101526.48;;;19.81;31.79
62237;BME280;69163;48.778;2.308;2023-05-25T04:00:01;101521.55;;;19.89;31.69
62237;BME280;69163;48.778;2.308;2023-05-25T04:02:25;101522.55;;;19.86;31.72
62237;BME280;69163;48.778;2.308;2023-05-25T04:04:51;101525.11;;;19.89;31.68
62237;BME280;69163;48.778;2.308;2023-05-25T04:07:17;101520.20;;;19.83;31.72
62237;BME280;69163;48.778;2.308;2023-05-25T04:09:41;101520.88;;;19.82;31.69
62237;BME280;69163;48.778;2.308;2023-05-25T04:12:07;101519.55;;;19.82;31.73
62237;BME280;69163;48.778;2.308;2023-05-25T04:14:32;101520.39;;;19.90;31.59
62237;BME280;69163;48.778;2.308;2023-05-25T04:16:58;101519.36;;;19.84;31.66
62237;BME280;69163;48.778;2.308;2023-05-25T04:19:22;101518.88;;;19.66;31.55
62237;BME280;69163;48.778;2.308;2023-05-25T04:21:47;101523.50;;;19.88;31.61
62237;BME280;69163;48.778;2.308;2023-05-25T04:24:13;101521.93;;;19.88;31.57
62237;BME280;69163;48.778;2.308;2023-05-25T04:26:38;101522.96;;;19.98;31.72
62237;BME280;69163;48.778;2.308;2023-05-25T04:29:03;101524.86;;;19.86;31.57
62237;BME280;69163;48.778;2.308;2023-05-25T04:31:28;101526.99;;;19.91;31.51
62237;BME280;69163;48.778;2.308;2023-05-25T04:33:54;101527.14;;;19.81;31.64
62237;BME280;69163;48.778;2.308;2023-05-25T04:36:19;101523.14;;;19.67;31.51
62237;BME280;69163;48.778;2.308;2023-05-25T04:38:44;101528.16;;;19.89;31.50
62237;BME280;69163;48.778;2.308;2023-05-25T04:41:09;101528.89;;;19.89;31.46
62237;BME280;69163;48.778;2.308;2023-05-25T04:43:35;101531.07;;;19.81;31.57
62237;BME280;69163;48.778;2.308;2023-05-25T04:45:59;101540.61;;;19.77;31.58
62237;BME280;69163;48.778;2.308;2023-05-25T04:48:25;101537.91;;;19.67;31.68
62237;BME280;69163;48.778;2.308;2023-05-25T04:50:50;101540.77;;;19.82;31.52
62237;BME280;69163;48.778;2.308;2023-05-25T04:53:16;101541.17;;;19.82;31.51
62237;BME280;69163;48.778;2.308;2023-05-25T04:55:41;101541.41;;;19.98;31.60
62237;BME280;69163;48.778;2.308;2023-05-25T04:58:06;101548.52;;;19.83;31.50
62237;BME280;69163;48.778;2.308;2023-05-25T05:00:31;101551.73;;;19.55;31.53
62237;BME280;69163;48.778;2.308;2023-05-25T05:02:57;101549.63;;;19.90;31.40
62237;BME280;69163;48.778;2.308;2023-05-25T05:05:22;101544.65;;;19.86;31.44
62237;BME280;69163;48.778;2.308;2023-05-25T05:07:47;101544.81;;;19.78;31.55
62237;BME280;69163;48.778;2.308;2023-05-25T05:10:12;101543.25;;;19.79;31.49
62237;BME280;69163;48.778;2.308;2023-05-25T05:12:37;101547.32;;;19.72;31.60
62237;BME280;69163;48.778;2.308;2023-05-25T05:15:03;101551.36;;;19.81;31.46
62237;BME280;69163;48.778;2.308;2023-05-25T05:17:28;101553.82;;;19.81;31.49
62237;BME280;69163;48.778;2.308;2023-05-25T05:19:53;101555.15;;;19.80;31.46
62237;BME280;69163;48.778;2.308;2023-05-25T05:22:18;101561.53;;;19.44;31.60
62237;BME280;69163;48.778;2.308;2023-05-25T05:24:43;101560.22;;;19.99;31.53
62237;BME280;69163;48.778;2.308;2023-05-25T05:27:09;101564.70;;;19.70;31.58
62237;BME280;69163;48.778;2.308;2023-05-25T05:29:34;101565.49;;;19.69;31.58
62237;BME280;69163;48.778;2.308;2023-05-25T05:31:59;101573.12;;;19.64;31.64
62237;BME280;69163;48.778;2.308;2023-05-25T05:34:25;101571.19;;;19.94;31.56
62237;BME280;69163;48.778;2.308;2023-05-25T05:36:50;101571.09;;;19.65;31.62
62237;BME280;69163;48.778;2.308;2023-05-25T05:39:15;101572.97;;;19.66;31.59
62237;BME280;69163;48.778;2.308;2023-05-25T05:41:40;101579.28;;;19.68;31.56
62237;BME280;69163;48.778;2.308;2023-05-25T05:44:05;101582.18;;;19.67;31.56
62237;BME280;69163;48.778;2.308;2023-05-25T05:46:30;101580.94;;;19.60;31.60
62237;BME280;69163;48.778;2.308;2023-05-25T05:48:56;101582.35;;;19.46;31.77
62237;BME280;69163;48.778;2.308;2023-05-25T05:51:22;101584.44;;;19.44;31.79
62237;BME280;69163;48.778;2.308;2023-05-25T05:53:46;101583.44;;;19.38;31.59
62237;BME280;69163;48.778;2.308;2023-05-25T05:56:16;101582.92;;;20.10;31.60
62237;BME280;69163;48.778;2.308;2023-05-25T05:58:37;101582.73;;;19.63;31.53
62237;BME280;69163;48.778;2.308;2023-05-25T06:01:02;101585.21;;;19.54;31.66
62237;BME280;69163;48.778;2.308;2023-05-25T06:03:28;101585.64;;;19.55;31.62
62237;BME280;69163;48.778;2.308;2023-05-25T06:05:53;101589.97;;;19.50;31.66
62237;BME280;69163;48.778;2.308;2023-05-25T06:08:18;101592.97;;;19.30;31.63
62237;BME280;69163;48.778;2.308;2023-05-25T06:10:44;101589.95;;;20.08;31.51
62237;BME280;69163;48.778;2.308;2023-05-25T06:13:09;101603.90;;;19.53;31.66
62237;BME280;69163;48.778;2.308;2023-05-25T06:15:35;101596.71;;;19.69;31.43
62237;BME280;69163;48.778;2.308;2023-05-25T06:18:00;101595.20;;;19.82;31.58
62237;BME280;69163;48.778;2.308;2023-05-25T06:20:25;101594.45;;;19.56;31.52
62237;BME280;69163;48.778;2.308;2023-05-25T06:22:50;101600.77;;;19.55;31.55
62237;BME280;69163;48.778;2.308;2023-05-25T06:25:16;101603.56;;;19.76;31.61
62237;BME280;69163;48.778;2.308;2023-05-25T06:27:41;101608.71;;;19.51;31.63
62237;BME280;69163;48.778;2.308;2023-05-25T06:30:07;101617.33;;;19.47;31.61
62237;BME280;69163;48.778;2.308;2023-05-25T06:32:31;101612.85;;;19.48;31.61
62237;BME280;69163;48.778;2.308;2023-05-25T06:34:56;101618.09;;;19.44;31.69
62237;BME280;69163;48.778;2.308;2023-05-25T06:37:22;101614.91;;;19.61;31.44
62237;BME280;69163;48.778;2.308;2023-05-25T06:39:47;101615.75;;;19.75;31.58
62237;BME280;69163;48.778;2.308;2023-05-25T06:42:12;101615.02;;;19.62;31.72
62237;BME280;69163;48.778;2.308;2023-05-25T06:44:37;101613.58;;;19.35;31.76
62237;BME280;69163;48.778;2.308;2023-05-25T06:47:03;101613.42;;;19.57;31.77
62237;BME280;69163;48.778;2.308;2023-05-25T06:49:28;101612.01;;;19.36;31.71
62237;BME280;69163;48.778;2.308;2023-05-25T06:51:53;101610.63;;;19.39;31.68
62237;BME280;69163;48.778;2.308;2023-05-25T06:54:18;101610.52;;;19.60;31.73
62237;BME280;69163;48.778;2.308;2023-05-25T06:56:44;101612.72;;;19.64;31.65
62237;BME280;69163;48.778;2.308;2023-05-25T06:59:09;101610.09;;;19.36;31.69
62237;BME280;69163;48.778;2.308;2023-05-25T07:01:33;101607.84;;;19.37;31.68
62237;BME280;69163;48.778;2.308;2023-05-25T07:03:59;101606.46;;;19.61;31.66
62237;BME280;69163;48.778;2.308;2023-05-25T07:06:24;101610.01;;;19.34;31.68
62237;BME280;69163;48.778;2.308;2023-05-25T07:08:50;101609.52;;;19.10;31.64
62237;BME280;69163;48.778;2.308;2023-05-25T07:11:15;101610.89;;;19.66;31.55
62237;BME280;69163;48.778;2.308;2023-05-25T07:13:40;101609.88;;;19.35;31.64
62237;BME280;69163;48.778;2.308;2023-05-25T07:16:05;101611.88;;;19.60;31.61
62237;BME280;69163;48.778;2.308;2023-05-25T07:18:31;101609.09;;;19.57;31.65
62237;BME280;69163;48.778;2.308;2023-05-25T07:20:56;101610.89;;;19.30;31.71
62237;BME280;69163;48.778;2.308;2023-05-25T07:23:21;101607.82;;;19.28;31.79
62237;BME280;69163;48.778;2.308;2023-05-25T07:25:46;101603.57;;;19.83;31.64
62237;BME280;69163;48.778;2.308;2023-05-25T07:28:11;101610.23;;;19.85;31.59
62237;BME280;69163;48.778;2.308;2023-05-25T07:30:37;101610.14;;;19.38;31.57
62237;BME280;69163;48.778;2.308;2023-05-25T07:33:02;101610.03;;;19.76;31.54
62237;BME280;69163;48.778;2.308;2023-05-25T07:35:27;101607.60;;;19.57;32.67
62237;BME280;69163;48.778;2.308;2023-05-25T07:37:57;101605.39;;;19.62;33.32
62237;BME280;69163;48.778;2.308;2023-05-25T07:40:17;101611.70;;;19.80;33.31
62237;BME280;69163;48.778;2.308;2023-05-25T07:42:43;101607.60;;;19.84;33.34
62237;BME280;69163;48.778;2.308;2023-05-25T07:45:09;101603.02;;;19.83;33.34
62237;BME280;69163;48.778;2.308;2023-05-25T07:47:33;101609.12;;;19.72;33.45
62237;BME280;69163;48.778;2.308;2023-05-25T07:49:59;101595.27;;;19.76;33.47
62237;BME280;69163;48.778;2.308;2023-05-25T07:52:24;101594.71;;;19.85;33.40
62237;BME280;69163;48.778;2.308;2023-05-25T07:54:49;101601.49;;;20.31;33.47
62237;BME280;69163;48.778;2.308;2023-05-25T07:57:15;101602.97;;;19.87;33.38
62237;BME280;69163;48.778;2.308;2023-05-25T07:59:40;101605.25;;;19.83;33.52
62237;BME280;69163;48.778;2.308;2023-05-25T08:02:05;101610.66;;;19.87;33.62
62237;BME280;69163;48.778;2.308;2023-05-25T08:04:31;101615.98;;;19.88;33.59
62237;BME280;69163;48.778;2.308;2023-05-25T08:06:57;101623.44;;;19.74;33.75
62237;BME280;69163;48.778;2.308;2023-05-25T08:09:21;101624.95;;;19.72;33.85
62237;BME280;69163;48.778;2.308;2023-05-25T08:11:47;101631.44;;;19.81;33.79
62237;BME280;69163;48.778;2.308;2023-05-25T08:14:12;101629.73;;;19.84;33.79
62237;BME280;69163;48.778;2.308;2023-05-25T08:16:37;101628.43;;;19.79;33.79
62237;BME280;69163;48.778;2.308;2023-05-25T08:19:02;101620.31;;;20.32;33.78
62237;BME280;69163;48.778;2.308;2023-05-25T08:21:28;101623.05;;;19.82;33.84
62237;BME280;69163;48.778;2.308;2023-05-25T08:23:54;101616.97;;;19.88;33.75
62237;BME280;69163;48.778;2.308;2023-05-25T08:26:18;101625.79;;;20.07;33.82
62237;BME280;69163;48.778;2.308;2023-05-25T08:28:43;101621.65;;;19.84;33.72
62237;BME280;69163;48.778;2.308;2023-05-25T08:31:09;101621.16;;;19.79;33.76
62237;BME280;69163;48.778;2.308;2023-05-25T08:33:34;101622.22;;;20.10;33.71
62237;BME280;69163;48.778;2.308;2023-05-25T08:35:59;101621.16;;;19.85;33.74
62237;BME280;69163;48.778;2.308;2023-05-25T08:38:24;101625.25;;;19.89;33.68
62237;BME280;69163;48.778;2.308;2023-05-25T08:40:58;101625.00;;;19.85;33.72
62237;BME280;69163;48.778;2.308;2023-05-25T08:43:14;101618.12;;;19.89;33.65
62237;BME280;69163;48.778;2.308;2023-05-25T08:45:42;101615.25;;;19.74;33.74
62237;BME280;69163;48.778;2.308;2023-05-25T08:48:09;101619.13;;;20.05;33.68
62237;BME280;69163;48.778;2.308;2023-05-25T08:50:31;101617.74;;;19.74;33.79
62237;BME280;69163;48.778;2.308;2023-05-25T08:52:57;101625.31;;;20.08;34.50
62237;BME280;69163;48.778;2.308;2023-05-25T08:55:22;101635.27;;;19.87;36.07
62237;BME280;69163;48.778;2.308;2023-05-25T08:57:51;101639.38;;;19.82;37.00
62237;BME280;69163;48.778;2.308;2023-05-25T09:00:14;101634.48;;;20.15;37.22
62237;BME280;69163;48.778;2.308;2023-05-25T09:02:40;101632.09;;;19.77;37.50
62237;BME280;69163;48.778;2.308;2023-05-25T09:05:02;101634.18;;;19.81;37.49
62237;BME280;69163;48.778;2.308;2023-05-25T09:07:27;101636.06;;;19.89;37.33
62237;BME280;69163;48.778;2.308;2023-05-25T09:09:53;101631.04;;;20.40;37.21
62237;BME280;69163;48.778;2.308;2023-05-25T09:12:20;101621.78;;;19.92;37.10
62237;BME280;69163;48.778;2.308;2023-05-25T09:14:43;101623.60;;;20.13;37.11
62237;BME280;69163;48.778;2.308;2023-05-25T09:17:09;101623.34;;;19.85;37.16
62237;BME280;69163;48.778;2.308;2023-05-25T09:19:35;101622.74;;;19.85;37.12
62237;BME280;69163;48.778;2.308;2023-05-25T09:22:00;101618.90;;;20.05;37.02
62237;BME280;69163;48.778;2.308;2023-05-25T09:24:25;101625.00;;;19.95;36.92
62237;BME280;69163;48.778;2.308;2023-05-25T09:26:51;101624.68;;;19.94;36.86
62237;BME280;69163;48.778;2.308;2023-05-25T09:29:16;101623.02;;;20.26;36.90
62237;BME280;69163;48.778;2.308;2023-05-25T09:31:42;101615.35;;;20.16;36.80
62237;BME280;69163;48.778;2.308;2023-05-25T09:34:10;101618.28;;;19.90;36.77
62237;BME280;69163;48.778;2.308;2023-05-25T09:36:33;101612.55;;;19.84;36.83
62237;BME280;69163;48.778;2.308;2023-05-25T09:38:57;101603.79;;;19.89;36.74
62237;BME280;69163;48.778;2.308;2023-05-25T09:41:22;101604.36;;;19.93;36.66
62237;BME280;69163;48.778;2.308;2023-05-25T09:43:47;101604.96;;;19.94;36.65
62237;BME280;69163;48.778;2.308;2023-05-25T09:46:13;101613.34;;;19.94;36.55
62237;BME280;69163;48.778;2.308;2023-05-25T09:48:39;101618.14;;;19.95;36.57
62237;BME280;69163;48.778;2.308;2023-05-25T09:51:03;101626.81;;;19.90;36.68
62237;BME280;69163;48.778;2.308;2023-05-25T09:53:29;101620.26;;;20.04;36.56
62237;BME280;69163;48.778;2.308;2023-05-25T09:55:55;101622.30;;;19.97;36.55
62237;BME280;69163;48.778;2.308;2023-05-25T09:58:22;101615.89;;;20.22;36.51
62237;BME280;69163;48.778;2.308;2023-05-25T10:00:45;101622.21;;;20.23;36.36
62237;BME280;69163;48.778;2.308;2023-05-25T10:03:10;101629.31;;;20.06;36.18
62237;BME280;69163;48.778;2.308;2023-05-25T10:05:35;101635.39;;;20.10;36.13
62237;BME280;69163;48.778;2.308;2023-05-25T10:08:01;101632.31;;;20.31;36.18
62237;BME280;69163;48.778;2.308;2023-05-25T10:10:26;101620.34;;;20.08;36.15
62237;BME280;69163;48.778;2.308;2023-05-25T10:12:52;101625.23;;;20.00;36.24
62237;BME280;69163;48.778;2.308;2023-05-25T10:15:16;101634.37;;;20.33;36.14
62237;BME280;69163;48.778;2.308;2023-05-25T10:17:44;101628.22;;;20.02;36.09
62237;BME280;69163;48.778;2.308;2023-05-25T10:20:07;101637.37;;;19.83;35.96
62237;BME280;69163;48.778;2.308;2023-05-25T10:22:35;101633.95;;;20.07;35.92
62237;BME280;69163;48.778;2.308;2023-05-25T10:25:04;101637.02;;;19.98;36.07
62237;BME280;69163;48.778;2.308;2023-05-25T10:27:24;101627.17;;;20.05;35.93
62237;BME280;69163;48.778;2.308;2023-05-25T10:29:48;101628.72;;;20.23;35.89
62237;BME280;69163;48.778;2.308;2023-05-25T10:32:13;101630.80;;;20.04;35.80
62237;BME280;69163;48.778;2.308;2023-05-25T10:34:37;101640.62;;;20.06;35.76
62237;BME280;69163;48.778;2.308;2023-05-25T10:37:04;101629.75;;;20.21;35.82
62237;BME280;69163;48.778;2.308;2023-05-25T10:39:29;101632.62;;;19.95;35.73
62237;BME280;69163;48.778;2.308;2023-05-25T10:41:54;101636.15;;;19.77;35.58
62237;BME280;69163;48.778;2.308;2023-05-25T10:44:19;101630.45;;;20.16;35.67
62237;BME280;69163;48.778;2.308;2023-05-25T10:46:44;101627.48;;;19.90;35.71
62237;BME280;69163;48.778;2.308;2023-05-25T10:49:09;101622.14;;;19.94;35.54
62237;BME280;69163;48.778;2.308;2023-05-25T10:51:37;101630.28;;;20.07;35.43
62237;BME280;69163;48.778;2.308;2023-05-25T10:54:01;101638.51;;;19.98;35.54
62237;BME280;69163;48.778;2.308;2023-05-25T10:56:25;101621.16;;;20.04;35.49
62237;BME280;69163;48.778;2.308;2023-05-25T10:58:52;101622.32;;;20.00;35.56
62237;BME280;69163;48.778;2.308;2023-05-25T11:01:17;101622.14;;;19.33;29.38
62237;BME280;69163;48.778;2.308;2023-05-25T11:03:50;101617.95;;;19.08;29.98
62237;BME280;69163;48.778;2.308;2023-05-25T11:06:07;101621.02;;;19.18;30.09
62237;BME280;69163;48.778;2.308;2023-05-25T11:10:57;101629.33;;;19.26;29.88
62237;BME280;69163;48.778;2.308;2023-05-25T11:13:33;101623.13;;;18.83;29.02
62237;BME280;69163;48.778;2.308;2023-05-25T11:18:14;101624.15;;;18.84;29.65
62237;BME280;69163;48.778;2.308;2023-05-25T11:20:38;101631.61;;;18.85;30.22
62237;BME280;69163;48.778;2.308;2023-05-25T11:25:38;101619.34;;;18.61;29.68
62237;BME280;69163;48.778;2.308;2023-05-25T11:28:01;101605.67;;;19.37;29.90
62237;BME280;69163;48.778;2.308;2023-05-25T11:30:20;101617.71;;;18.97;29.19
62237;BME280;69163;48.778;2.308;2023-05-25T11:32:48;101611.67;;;19.13;28.82
62237;BME280;69163;48.778;2.308;2023-05-25T11:35:10;101613.79;;;19.24;29.06
62237;BME280;69163;48.778;2.308;2023-05-25T11:37:36;101617.84;;;18.79;28.40
62237;BME280;69163;48.778;2.308;2023-05-25T11:40:06;101613.88;;;18.89;27.62
62237;BME280;69163;48.778;2.308;2023-05-25T11:42:26;101614.30;;;19.26;28.10
62237;BME280;69163;48.778;2.308;2023-05-25T11:44:52;101610.27;;;19.07;28.34
62237;BME280;69163;48.778;2.308;2023-05-25T11:47:19;101609.36;;;18.91;29.44
62237;BME280;69163;48.778;2.308;2023-05-25T11:49:43;101613.85;;;19.14;28.74
62237;BME280;69163;48.778;2.308;2023-05-25T11:52:08;101596.79;;;19.02;28.18
62237;BME280;69163;48.778;2.308;2023-05-25T11:54:33;101589.34;;;18.80;29.22
62237;BME280;69163;48.778;2.308;2023-05-25T11:56:57;101596.96;;;18.48;28.42
62237;BME280;69163;48.778;2.308;2023-05-25T11:59:23;101589.10;;;19.19;29.11
62237;BME280;69163;48.778;2.308;2023-05-25T12:01:56;101592.17;;;19.01;29.11
62237;BME280;69163;48.778;2.308;2023-05-25T12:04:14;101589.53;;;18.94;29.02
62237;BME280;69163;48.778;2.308;2023-05-25T12:06:39;101578.06;;;19.23;28.83
62237;BME280;69163;48.778;2.308;2023-05-25T12:09:09;101593.98;;;19.47;29.28
62237;BME280;69163;48.778;2.308;2023-05-25T12:11:31;101593.96;;;19.10;29.40
62237;BME280;69163;48.778;2.308;2023-05-25T12:13:55;101589.17;;;19.60;28.96
62237;BME280;69163;48.778;2.308;2023-05-25T12:16:20;101587.90;;;19.00;28.69
62237;BME280;69163;48.778;2.308;2023-05-25T12:18:46;101590.27;;;19.03;29.33
62237;BME280;69163;48.778;2.308;2023-05-25T12:21:10;101588.91;;;19.37;29.07
62237;BME280;69163;48.778;2.308;2023-05-25T12:23:36;101590.27;;;19.05;29.15
62237;BME280;69163;48.778;2.308;2023-05-25T12:26:09;101590.61;;;18.96;28.47
62237;BME280;69163;48.778;2.308;2023-05-25T12:28:26;101583.89;;;19.23;28.63
62237;BME280;69163;48.778;2.308;2023-05-25T12:30:52;101590.16;;;19.72;28.26
62237;BME280;69163;48.778;2.308;2023-05-25T12:33:17;101592.77;;;19.14;28.63
62237;BME280;69163;48.778;2.308;2023-05-25T12:35:45;101590.64;;;19.42;28.71
62237;BME280;69163;48.778;2.308;2023-05-25T12:38:09;101589.74;;;18.99;29.05
62237;BME280;69163;48.778;2.308;2023-05-25T12:40:33;101592.99;;;18.79;29.07
62237;BME280;69163;48.778;2.308;2023-05-25T12:42:58;101590.98;;;18.93;28.98
62237;BME280;69163;48.778;2.308;2023-05-25T12:45:24;101595.31;;;19.34;29.32